sensor_id;sensor_type;location;lat;lon;timestamp;P1;durP1;ratioP1;P2;durP2;ratioP2
4174;SDS011;2101;48.290;14.382;2023-02-23T07:05:04;24.60;;;7.13;;
4174;SDS011;2101;48.290;14.382;2023-02-23T07:07:31;27.50;;;7.53;;
4174;SDS011;2101;48.290;14.382;2023-02-23T07:09:58;25.17;;;7.50;;
4174;SDS011;2101;48.290;14.382;2023-02-23T07:12:24;27.10;;;8.37;;
4174;SDS011;2101;48.290;14.382;2023-02-23T07:14:51;26.10;;;6.83;;
4174;SDS011;2101;48.290;14.382;2023-02-23T07:17:17;24.10;;;6.47;;
4174;SDS011;2101;48.290;14.382;2023-02-23T07:19:44;30.47;;;7.50;;
4174;SDS011;2101;48.290;14.382;2023-02-23T07:22:11;29.40;;;6.90;;
4174;SDS011;2101;48.290;14.382;2023-02-23T07:24:37;27.60;;;7.83;;
4174;SDS011;2101;48.290;14.382;2023-02-23T07:27:04;26.20;;;7.87;;
4174;SDS011;2101;48.290;14.382;2023-02-23T07:29:30;26.00;;;7.60;;
4174;SDS011;2101;48.290;14.382;2023-02-23T07:31:57;22.83;;;6.30;;
4174;SDS011;2101;48.290;14.382;2023-02-23T07:34:23;25.10;;;7.83;;
4174;SDS011;2101;48.290;14.382;2023-02-23T07:36:50;23.80;;;7.30;;
4174;SDS011;2101;48.290;14.382;2023-02-23T07:39:16;36.93;;;7.87;;
4174;SDS011;2101;48.290;14.382;2023-02-23T07:41:43;29.30;;;7.40;;
4174;SDS011;2101;48.290;14.382;2023-02-23T07:44:10;30.00;;;8.07;;
4174;SDS011;2101;48.290;14.382;2023-02-23T07:46:37;28.23;;;7.43;;
4174;SDS011;2101;48.290;14.382;2023-02-23T07:49:04;26.10;;;7.80;;
4174;SDS011;2101;48.290;14.382;2023-02-23T07:51:30;32.10;;;7.60;;
4174;SDS011;2101;48.290;14.382;2023-02-23T07:54:00;24.93;;;7.20;;
4174;SDS011;2101;48.290;14.382;2023-02-23T07:56:27;32.00;;;7.77;;
4174;SDS011;2101;48.290;14.382;2023-02-23T07:58:54;26.23;;;7.60;;
4174;SDS011;2101;48.290;14.382;2023-02-23T08:01:20;30.10;;;7.57;;
4174;SDS011;2101;48.290;14.382;2023-02-23T08:03:47;24.13;;;7.40;;
4174;SDS011;2101;48.290;14.382;2023-02-23T08:06:17;28.97;;;8.27;;
4174;SDS011;2101;48.290;14.382;2023-02-23T08:08:44;22.43;;;7.20;;
4174;SDS011;2101;48.290;14.382;2023-02-23T08:11:10;28.53;;;7.20;;
4174;SDS011;2101;48.290;14.382;2023-02-23T08:13:37;26.27;;;6.97;;
4174;SDS011;2101;48.290;14.382;2023-02-23T08:16:04;26.90;;;7.17;;
4174;SDS011;2101;48.290;14.382;2023-02-23T08:18:31;24.23;;;7.10;;
4174;SDS011;2101;48.290;14.382;2023-02-23T08:20:58;24.20;;;7.10;;
4174;SDS011;2101;48.290;14.382;2023-02-23T08:23:24;23.90;;;6.80;;
4174;SDS011;2101;48.290;14.382;2023-02-23T08:25:51;25.80;;;6.57;;
4174;SDS011;2101;48.290;14.382;2023-02-23T08:28:18;22.80;;;6.60;;
4174;SDS011;2101;48.290;14.382;2023-02-23T08:30:45;21.90;;;6.27;;
4174;SDS011;2101;48.290;14.382;2023-02-23T08:33:11;23.40;;;6.30;;
4174;SDS011;2101;48.290;14.382;2023-02-23T08:35:37;21.77;;;5.27;;
4174;SDS011;2101;48.290;14.382;2023-02-23T08:40:39;23.10;;;6.30;;
4174;SDS011;2101;48.290;14.382;2023-02-23T08:43:07;23.67;;;6.50;;
4174;SDS011;2101;48.290;14.382;2023-02-23T08:45:41;28.03;;;7.43;;
4174;SDS011;2101;48.290;14.382;2023-02-23T08:48:08;27.10;;;7.77;;
4174;SDS011;2101;48.290;14.382;2023-02-23T08:50:34;22.27;;;6.47;;
4174;SDS011;2101;48.290;14.382;2023-02-23T08:53:00;24.93;;;6.70;;
4174;SDS011;2101;48.290;14.382;2023-02-23T08:55:26;24.30;;;6.50;;
4174;SDS011;2101;48.290;14.382;2023-02-23T08:57:52;23.60;;;6.40;;
4174;SDS011;2101;48.290;14.382;2023-02-23T09:00:19;24.20;;;6.60;;
4174;SDS011;2101;48.290;14.382;2023-02-23T09:02:45;18.80;;;5.10;;
4174;SDS011;2101;48.290;14.382;2023-02-23T09:05:12;20.87;;;5.90;;
4174;SDS011;2101;48.290;14.382;2023-02-23T09:07:39;21.57;;;6.07;;
4174;SDS011;2101;48.290;14.382;2023-02-23T09:10:10;22.30;;;5.67;;
4174;SDS011;2101;48.290;14.382;2023-02-23T09:12:36;20.97;;;5.70;;
4174;SDS011;2101;48.290;14.382;2023-02-23T09:15:03;17.30;;;5.03;;
4174;SDS011;2101;48.290;14.382;2023-02-23T09:17:29;20.00;;;5.27;;
4174;SDS011;2101;48.290;14.382;2023-02-23T09:19:55;26.70;;;4.60;;
4174;SDS011;2101;48.290;14.382;2023-02-23T09:22:21;19.60;;;5.30;;
4174;SDS011;2101;48.290;14.382;2023-02-23T09:24:47;23.13;;;4.53;;
4174;SDS011;2101;48.290;14.382;2023-02-23T09:27:13;20.90;;;5.60;;
4174;SDS011;2101;48.290;14.382;2023-02-23T09:29:39;20.77;;;5.90;;
4174;SDS011;2101;48.290;14.382;2023-02-23T09:32:06;19.43;;;5.43;;
4174;SDS011;2101;48.290;14.382;2023-02-23T09:34:32;18.60;;;5.33;;
4174;SDS011;2101;48.290;14.382;2023-02-23T09:37:00;22.13;;;5.77;;
4174;SDS011;2101;48.290;14.382;2023-02-23T09:39:27;19.77;;;5.67;;
4174;SDS011;2101;48.290;14.382;2023-02-23T09:42:09;22.20;;;5.83;;
4174;SDS011;2101;48.290;14.382;2023-02-23T09:44:54;22.03;;;7.33;;
4174;SDS011;2101;48.290;14.382;2023-02-23T09:50:15;22.93;;;6.40;;
4174;SDS011;2101;48.290;14.382;2023-02-23T09:52:44;23.70;;;7.40;;
4174;SDS011;2101;48.290;14.382;2023-02-23T09:55:12;21.53;;;6.30;;
4174;SDS011;2101;48.290;14.382;2023-02-23T09:57:40;23.60;;;7.03;;
4174;SDS011;2101;48.290;14.382;2023-02-23T10:02:59;31.77;;;8.10;;
4174;SDS011;2101;48.290;14.382;2023-02-23T10:05:29;24.80;;;7.87;;
4174;SDS011;2101;48.290;14.382;2023-02-23T10:10:47;27.43;;;8.50;;
4174;SDS011;2101;48.290;14.382;2023-02-23T10:15:43;26.60;;;8.47;;
4174;SDS011;2101;48.290;14.382;2023-02-23T10:19:15;32.00;;;8.23;;
4174;SDS011;2101;48.290;14.382;2023-02-23T10:26:35;26.00;;;8.17;;
4174;SDS011;2101;48.290;14.382;2023-02-23T10:29:03;33.37;;;8.47;;
4174;SDS011;2101;48.290;14.382;2023-02-23T10:31:33;26.17;;;7.57;;
4174;SDS011;2101;48.290;14.382;2023-02-23T10:34:04;25.80;;;7.90;;
4174;SDS011;2101;48.290;14.382;2023-02-23T10:36:38;25.30;;;7.20;;
4174;SDS011;2101;48.290;14.382;2023-02-23T10:39:06;28.43;;;8.47;;
4174;SDS011;2101;48.290;14.382;2023-02-23T10:41:36;26.13;;;8.20;;
4174;SDS011;2101;48.290;14.382;2023-02-23T10:44:03;26.50;;;8.83;;
4174;SDS011;2101;48.290;14.382;2023-02-23T10:46:34;47.83;;;9.23;;
4174;SDS011;2101;48.290;14.382;2023-02-23T10:49:01;25.13;;;7.70;;
4174;SDS011;2101;48.290;14.382;2023-02-23T10:51:29;24.10;;;8.13;;
4174;SDS011;2101;48.290;14.382;2023-02-23T10:53:56;34.43;;;9.30;;
4174;SDS011;2101;48.290;14.382;2023-02-23T10:56:22;38.70;;;9.37;;
4174;SDS011;2101;48.290;14.382;2023-02-23T10:58:50;27.53;;;9.23;;
4174;SDS011;2101;48.290;14.382;2023-02-23T11:04:11;26.63;;;8.57;;
4174;SDS011;2101;48.290;14.382;2023-02-23T11:06:37;34.07;;;10.00;;
4174;SDS011;2101;48.290;14.382;2023-02-23T11:09:15;36.67;;;10.40;;
4174;SDS011;2101;48.290;14.382;2023-02-23T11:11:42;30.47;;;8.70;;
4174;SDS011;2101;48.290;14.382;2023-02-23T11:14:22;28.57;;;9.30;;
4174;SDS011;2101;48.290;14.382;2023-02-23T11:16:49;31.80;;;9.10;;
4174;SDS011;2101;48.290;14.382;2023-02-23T11:19:28;28.73;;;8.40;;
4174;SDS011;2101;48.290;14.382;2023-02-23T11:21:55;44.63;;;9.67;;
4174;SDS011;2101;48.290;14.382;2023-02-23T11:24:25;28.00;;;9.07;;
4174;SDS011;2101;48.290;14.382;2023-02-23T11:26:53;33.63;;;9.10;;
4174;SDS011;2101;48.290;14.382;2023-02-23T11:29:27;31.83;;;10.67;;
4174;SDS011;2101;48.290;14.382;2023-02-23T11:31:57;31.60;;;10.60;;
4174;SDS011;2101;48.290;14.382;2023-02-23T11:34:28;32.87;;;10.10;;
4174;SDS011;2101;48.290;14.382;2023-02-23T11:37:04;34.10;;;10.70;;
4174;SDS011;2101;48.290;14.382;2023-02-23T11:39:31;31.10;;;9.63;;
4174;SDS011;2101;48.290;14.382;2023-02-23T11:44:39;34.30;;;11.27;;
4174;SDS011;2101;48.290;14.382;2023-02-23T11:47:12;38.30;;;12.00;;
4174;SDS011;2101;48.290;14.382;2023-02-23T11:49:39;34.80;;;12.20;;
4174;SDS011;2101;48.290;14.382;2023-02-23T11:52:11;44.60;;;13.83;;
4174;SDS011;2101;48.290;14.382;2023-02-23T11:54:38;35.87;;;12.70;;
4174;SDS011;2101;48.290;14.382;2023-02-23T11:57:05;37.67;;;13.00;;
4174;SDS011;2101;48.290;14.382;2023-02-23T11:59:32;37.83;;;12.90;;
4174;SDS011;2101;48.290;14.382;2023-02-23T12:04:47;41.17;;;12.90;;
4174;SDS011;2101;48.290;14.382;2023-02-23T12:10:09;40.63;;;13.80;;
4174;SDS011;2101;48.290;14.382;2023-02-23T12:12:43;39.20;;;13.43;;
4174;SDS011;2101;48.290;14.382;2023-02-23T12:15:12;37.63;;;13.27;;
4174;SDS011;2101;48.290;14.382;2023-02-23T12:17:43;42.37;;;13.70;;
4174;SDS011;2101;48.290;14.382;2023-02-23T12:20:17;44.10;;;15.53;;
4174;SDS011;2101;48.290;14.382;2023-02-23T12:22:56;39.10;;;12.77;;
4174;SDS011;2101;48.290;14.382;2023-02-23T12:25:28;39.57;;;13.13;;
4174;SDS011;2101;48.290;14.382;2023-02-23T12:30:43;44.20;;;14.27;;
4174;SDS011;2101;48.290;14.382;2023-02-23T12:33:23;46.30;;;13.63;;
4174;SDS011;2101;48.290;14.382;2023-02-23T12:38:32;37.87;;;13.20;;
4174;SDS011;2101;48.290;14.382;2023-02-23T12:41:13;43.00;;;12.83;;
4174;SDS011;2101;48.290;14.382;2023-02-23T12:43:47;40.37;;;14.30;;
4174;SDS011;2101;48.290;14.382;2023-02-23T12:46:20;45.80;;;13.23;;
4174;SDS011;2101;48.290;14.382;2023-02-23T12:53:42;37.33;;;12.90;;
4174;SDS011;2101;48.290;14.382;2023-02-23T13:04:06;36.43;;;10.90;;
4174;SDS011;2101;48.290;14.382;2023-02-23T13:06:38;35.30;;;11.57;;
4174;SDS011;2101;48.290;14.382;2023-02-23T13:14:25;37.30;;;13.10;;
4174;SDS011;2101;48.290;14.382;2023-02-23T13:16:59;38.70;;;12.83;;
4174;SDS011;2101;48.290;14.382;2023-02-23T13:24:48;39.40;;;13.03;;
4174;SDS011;2101;48.290;14.382;2023-02-23T13:29:45;34.20;;;11.73;;
4174;SDS011;2101;48.290;14.382;2023-02-23T13:32:23;39.80;;;13.70;;
4174;SDS011;2101;48.290;14.382;2023-02-23T13:34:56;36.30;;;11.77;;
4174;SDS011;2101;48.290;14.382;2023-02-23T13:37:33;35.30;;;11.50;;
4174;SDS011;2101;48.290;14.382;2023-02-23T13:45:25;34.37;;;11.67;;
4174;SDS011;2101;48.290;14.382;2023-02-23T13:47:55;37.53;;;12.30;;
4174;SDS011;2101;48.290;14.382;2023-02-23T13:52:51;37.30;;;12.47;;
4174;SDS011;2101;48.290;14.382;2023-02-23T13:57:48;34.87;;;11.70;;
4174;SDS011;2101;48.290;14.382;2023-02-23T14:00:17;39.63;;;12.03;;
4174;SDS011;2101;48.290;14.382;2023-02-23T14:02:43;37.07;;;12.17;;
4174;SDS011;2101;48.290;14.382;2023-02-23T14:07:43;39.93;;;12.97;;
4174;SDS011;2101;48.290;14.382;2023-02-23T14:10:52;35.80;;;12.40;;
4174;SDS011;2101;48.290;14.382;2023-02-23T14:13:09;40.33;;;13.23;;
4174;SDS011;2101;48.290;14.382;2023-02-23T14:15:49;38.10;;;12.90;;
4174;SDS011;2101;48.290;14.382;2023-02-23T14:23:47;41.97;;;14.40;;
4174;SDS011;2101;48.290;14.382;2023-02-23T14:26:17;40.40;;;13.93;;
4174;SDS011;2101;48.290;14.382;2023-02-23T14:37:28;37.03;;;12.90;;
4174;SDS011;2101;48.290;14.382;2023-02-23T14:39:59;37.47;;;13.07;;
4174;SDS011;2101;48.290;14.382;2023-02-23T14:42:27;38.73;;;12.43;;
4174;SDS011;2101;48.290;14.382;2023-02-23T14:44:57;38.50;;;12.53;;
4174;SDS011;2101;48.290;14.382;2023-02-23T14:47:27;36.50;;;12.27;;
4174;SDS011;2101;48.290;14.382;2023-02-23T14:52:33;43.33;;;13.67;;
4174;SDS011;2101;48.290;14.382;2023-02-23T14:55:15;36.60;;;13.67;;
4174;SDS011;2101;48.290;14.382;2023-02-23T14:57:47;41.23;;;14.20;;
4174;SDS011;2101;48.290;14.382;2023-02-23T15:00:17;38.37;;;11.77;;
4174;SDS011;2101;48.290;14.382;2023-02-23T15:05:23;45.50;;;14.27;;
4174;SDS011;2101;48.290;14.382;2023-02-23T15:07:50;42.47;;;13.80;;
4174;SDS011;2101;48.290;14.382;2023-02-23T15:13:11;44.03;;;13.33;;
4174;SDS011;2101;48.290;14.382;2023-02-23T15:15:40;43.50;;;14.50;;
4174;SDS011;2101;48.290;14.382;2023-02-23T15:18:48;39.57;;;12.77;;
4174;SDS011;2101;48.290;14.382;2023-02-23T15:21:20;39.53;;;13.67;;
4174;SDS011;2101;48.290;14.382;2023-02-23T15:23:51;41.77;;;13.80;;
4174;SDS011;2101;48.290;14.382;2023-02-23T15:26:36;36.80;;;12.33;;
4174;SDS011;2101;48.290;14.382;2023-02-23T15:31:49;43.33;;;12.50;;
4174;SDS011;2101;48.290;14.382;2023-02-23T15:34:18;39.70;;;12.60;;
4174;SDS011;2101;48.290;14.382;2023-02-23T15:37:02;41.43;;;12.57;;
4174;SDS011;2101;48.290;14.382;2023-02-23T15:39:42;36.73;;;11.87;;
4174;SDS011;2101;48.290;14.382;2023-02-23T15:43:01;37.63;;;11.93;;
4174;SDS011;2101;48.290;14.382;2023-02-23T15:45:41;37.97;;;12.13;;
4174;SDS011;2101;48.290;14.382;2023-02-23T15:48:12;42.50;;;13.97;;
4174;SDS011;2101;48.290;14.382;2023-02-23T15:50:43;40.63;;;12.57;;
4174;SDS011;2101;48.290;14.382;2023-02-23T15:53:33;37.70;;;11.83;;
4174;SDS011;2101;48.290;14.382;2023-02-23T15:56:09;43.33;;;12.50;;
4174;SDS011;2101;48.290;14.382;2023-02-23T15:58:46;47.07;;;12.30;;
4174;SDS011;2101;48.290;14.382;2023-02-23T16:01:32;40.70;;;12.53;;
4174;SDS011;2101;48.290;14.382;2023-02-23T16:06:51;40.50;;;11.50;;
4174;SDS011;2101;48.290;14.382;2023-02-23T16:09:27;35.60;;;10.57;;
4174;SDS011;2101;48.290;14.382;2023-02-23T16:14:48;38.10;;;12.83;;
4174;SDS011;2101;48.290;14.382;2023-02-23T16:17:59;32.30;;;11.37;;
4174;SDS011;2101;48.290;14.382;2023-02-23T16:20:52;41.60;;;13.00;;
4174;SDS011;2101;48.290;14.382;2023-02-23T16:23:40;39.90;;;14.20;;
4174;SDS011;2101;48.290;14.382;2023-02-23T16:26:23;42.37;;;14.30;;
4174;SDS011;2101;48.290;14.382;2023-02-23T16:28:55;34.30;;;11.90;;
4174;SDS011;2101;48.290;14.382;2023-02-23T16:31:44;47.83;;;14.10;;
4174;SDS011;2101;48.290;14.382;2023-02-23T16:37:17;36.87;;;12.43;;
4174;SDS011;2101;48.290;14.382;2023-02-23T16:39:46;42.30;;;12.37;;
4174;SDS011;2101;48.290;14.382;2023-02-23T16:44:48;37.03;;;12.40;;
4174;SDS011;2101;48.290;14.382;2023-02-23T16:49:49;41.53;;;13.17;;
4174;SDS011;2101;48.290;14.382;2023-02-23T16:52:17;38.90;;;13.03;;
4174;SDS011;2101;48.290;14.382;2023-02-23T16:54:43;36.63;;;12.93;;
4174;SDS011;2101;48.290;14.382;2023-02-23T16:57:26;38.03;;;13.33;;
4174;SDS011;2101;48.290;14.382;2023-02-23T16:59:53;42.13;;;12.80;;
4174;SDS011;2101;48.290;14.382;2023-02-23T17:02:21;38.47;;;13.60;;
4174;SDS011;2101;48.290;14.382;2023-02-23T17:04:48;39.43;;;13.03;;
4174;SDS011;2101;48.290;14.382;2023-02-23T17:07:15;42.73;;;13.00;;
4174;SDS011;2101;48.290;14.382;2023-02-23T17:09:42;34.40;;;12.57;;
4174;SDS011;2101;48.290;14.382;2023-02-23T17:12:09;42.07;;;13.60;;
4174;SDS011;2101;48.290;14.382;2023-02-23T17:14:36;39.20;;;13.37;;
4174;SDS011;2101;48.290;14.382;2023-02-23T17:17:02;41.70;;;14.43;;
4174;SDS011;2101;48.290;14.382;2023-02-23T17:19:28;33.60;;;11.77;;
4174;SDS011;2101;48.290;14.382;2023-02-23T17:21:54;47.53;;;13.30;;
4174;SDS011;2101;48.290;14.382;2023-02-23T17:24:20;41.03;;;12.87;;
4174;SDS011;2101;48.290;14.382;2023-02-23T17:26:50;48.07;;;15.10;;
4174;SDS011;2101;48.290;14.382;2023-02-23T17:29:17;42.23;;;14.03;;
4174;SDS011;2101;48.290;14.382;2023-02-23T17:31:44;62.80;;;15.10;;
4174;SDS011;2101;48.290;14.382;2023-02-23T17:34:10;43.50;;;12.10;;
4174;SDS011;2101;48.290;14.382;2023-02-23T17:36:37;37.57;;;13.10;;
4174;SDS011;2101;48.290;14.382;2023-02-23T17:39:03;44.40;;;13.87;;
4174;SDS011;2101;48.290;14.382;2023-02-23T17:41:32;39.77;;;14.73;;
4174;SDS011;2101;48.290;14.382;2023-02-23T17:43:58;47.07;;;15.37;;
4174;SDS011;2101;48.290;14.382;2023-02-23T17:46:29;47.40;;;15.67;;
4174;SDS011;2101;48.290;14.382;2023-02-23T17:48:55;44.20;;;15.07;;
4174;SDS011;2101;48.290;14.382;2023-02-23T17:51:22;48.07;;;15.97;;
4174;SDS011;2101;48.290;14.382;2023-02-23T17:53:48;43.20;;;14.00;;
4174;SDS011;2101;48.290;14.382;2023-02-23T17:59:19;43.97;;;15.70;;
4174;SDS011;2101;48.290;14.382;2023-02-23T18:01:45;56.00;;;15.20;;
4174;SDS011;2101;48.290;14.382;2023-02-23T18:04:13;41.27;;;15.33;;
4174;SDS011;2101;48.290;14.382;2023-02-23T18:06:40;40.70;;;14.53;;
4174;SDS011;2101;48.290;14.382;2023-02-23T18:09:07;46.80;;;14.30;;
4174;SDS011;2101;48.290;14.382;2023-02-23T18:11:33;46.60;;;13.80;;
4174;SDS011;2101;48.290;14.382;2023-02-23T18:14:00;44.47;;;13.93;;
4174;SDS011;2101;48.290;14.382;2023-02-23T18:16:27;42.33;;;14.13;;
4174;SDS011;2101;48.290;14.382;2023-02-23T18:18:53;37.10;;;12.30;;
4174;SDS011;2101;48.290;14.382;2023-02-23T18:21:22;42.37;;;14.40;;
4174;SDS011;2101;48.290;14.382;2023-02-23T18:23:48;49.07;;;14.53;;
4174;SDS011;2101;48.290;14.382;2023-02-23T18:26:16;48.97;;;14.23;;
4174;SDS011;2101;48.290;14.382;2023-02-23T18:28:42;47.10;;;14.27;;
4174;SDS011;2101;48.290;14.382;2023-02-23T18:31:20;42.40;;;13.67;;
4174;SDS011;2101;48.290;14.382;2023-02-23T18:33:54;38.67;;;13.10;;
4174;SDS011;2101;48.290;14.382;2023-02-23T18:36:26;40.47;;;13.67;;
4174;SDS011;2101;48.290;14.382;2023-02-23T18:38:53;42.00;;;13.43;;
4174;SDS011;2101;48.290;14.382;2023-02-23T18:41:21;39.60;;;12.73;;
4174;SDS011;2101;48.290;14.382;2023-02-23T18:43:47;50.30;;;13.70;;
4174;SDS011;2101;48.290;14.382;2023-02-23T18:46:14;39.33;;;13.70;;
4174;SDS011;2101;48.290;14.382;2023-02-23T18:48:42;48.07;;;15.43;;
4174;SDS011;2101;48.290;14.382;2023-02-23T18:51:08;46.43;;;12.40;;
4174;SDS011;2101;48.290;14.382;2023-02-23T18:53:38;45.10;;;16.23;;
4174;SDS011;2101;48.290;14.382;2023-02-23T18:56:08;48.07;;;14.43;;
4174;SDS011;2101;48.290;14.382;2023-02-23T18:58:35;50.40;;;16.50;;
4174;SDS011;2101;48.290;14.382;2023-02-23T19:01:08;46.83;;;15.50;;
4174;SDS011;2101;48.290;14.382;2023-02-23T19:03:35;49.60;;;15.67;;
4174;SDS011;2101;48.290;14.382;2023-02-23T19:06:02;45.77;;;15.47;;
4174;SDS011;2101;48.290;14.382;2023-02-23T19:08:33;45.37;;;15.40;;
4174;SDS011;2101;48.290;14.382;2023-02-23T19:10:59;46.93;;;17.20;;
4174;SDS011;2101;48.290;14.382;2023-02-23T19:13:28;56.50;;;16.47;;
4174;SDS011;2101;48.290;14.382;2023-02-23T19:15:54;57.30;;;18.43;;
4174;SDS011;2101;48.290;14.382;2023-02-23T19:18:22;70.63;;;19.97;;
4174;SDS011;2101;48.290;14.382;2023-02-23T19:20:52;61.63;;;20.10;;
4174;SDS011;2101;48.290;14.382;2023-02-23T19:23:19;66.17;;;21.50;;
4174;SDS011;2101;48.290;14.382;2023-02-23T19:25:47;62.53;;;20.60;;
4174;SDS011;2101;48.290;14.382;2023-02-23T19:28:15;54.07;;;20.53;;
4174;SDS011;2101;48.290;14.382;2023-02-23T19:30:41;59.63;;;20.90;;
4174;SDS011;2101;48.290;14.382;2023-02-23T19:33:11;60.27;;;19.60;;
4174;SDS011;2101;48.290;14.382;2023-02-23T19:35:40;59.73;;;20.50;;
4174;SDS011;2101;48.290;14.382;2023-02-23T19:38:07;52.33;;;18.87;;
4174;SDS011;2101;48.290;14.382;2023-02-23T19:40:38;66.67;;;19.23;;
4174;SDS011;2101;48.290;14.382;2023-02-23T19:43:13;53.47;;;14.73;;
4174;SDS011;2101;48.290;14.382;2023-02-23T19:45:40;47.27;;;14.80;;
4174;SDS011;2101;48.290;14.382;2023-02-23T19:48:15;42.13;;;14.60;;
4174;SDS011;2101;48.290;14.382;2023-02-23T19:50:45;39.97;;;14.53;;
4174;SDS011;2101;48.290;14.382;2023-02-23T19:53:14;57.30;;;17.13;;
4174;SDS011;2101;48.290;14.382;2023-02-23T19:55:59;54.87;;;16.20;;
4174;SDS011;2101;48.290;14.382;2023-02-23T19:58:48;44.63;;;14.43;;
4174;SDS011;2101;48.290;14.382;2023-02-23T20:01:24;66.50;;;16.10;;
4174;SDS011;2101;48.290;14.382;2023-02-23T20:03:54;43.77;;;16.20;;
4174;SDS011;2101;48.290;14.382;2023-02-23T20:06:27;44.57;;;14.50;;
4174;SDS011;2101;48.290;14.382;2023-02-23T20:09:02;48.47;;;15.60;;
4174;SDS011;2101;48.290;14.382;2023-02-23T20:11:33;43.23;;;14.93;;
4174;SDS011;2101;48.290;14.382;2023-02-23T20:14:04;45.53;;;13.90;;
4174;SDS011;2101;48.290;14.382;2023-02-23T20:16:37;47.70;;;15.23;;
4174;SDS011;2101;48.290;14.382;2023-02-23T20:19:09;43.30;;;15.30;;
4174;SDS011;2101;48.290;14.382;2023-02-23T20:21:52;44.87;;;14.20;;
4174;SDS011;2101;48.290;14.382;2023-02-23T20:33:40;45.37;;;15.30;;
4174;SDS011;2101;48.290;14.382;2023-02-23T20:36:48;42.73;;;13.13;;
4174;SDS011;2101;48.290;14.382;2023-02-23T20:39:49;38.43;;;14.00;;
4174;SDS011;2101;48.290;14.382;2023-02-23T20:42:59;43.17;;;14.37;;
4174;SDS011;2101;48.290;14.382;2023-02-23T20:48:58;46.07;;;14.03;;
4174;SDS011;2101;48.290;14.382;2023-02-23T20:55:14;41.57;;;14.10;;
4174;SDS011;2101;48.290;14.382;2023-02-23T20:58:30;39.07;;;13.80;;
4174;SDS011;2101;48.290;14.382;2023-02-23T21:04:26;54.53;;;15.83;;
4174;SDS011;2101;48.290;14.382;2023-02-23T21:07:35;43.60;;;14.77;;
4174;SDS011;2101;48.290;14.382;2023-02-23T21:34:19;42.30;;;15.23;;
4174;SDS011;2101;48.290;14.382;2023-02-23T21:36:47;57.10;;;17.87;;
4174;SDS011;2101;48.290;14.382;2023-02-23T21:39:21;46.07;;;16.30;;
4174;SDS011;2101;48.290;14.382;2023-02-23T21:41:54;51.93;;;16.70;;
4174;SDS011;2101;48.290;14.382;2023-02-23T21:44:21;60.20;;;17.97;;
4174;SDS011;2101;48.290;14.382;2023-02-23T21:46:48;48.77;;;17.00;;
4174;SDS011;2101;48.290;14.382;2023-02-23T21:49:32;52.10;;;17.33;;
4174;SDS011;2101;48.290;14.382;2023-02-23T21:51:59;55.73;;;17.23;;
4174;SDS011;2101;48.290;14.382;2023-02-23T21:54:38;48.17;;;16.57;;
4174;SDS011;2101;48.290;14.382;2023-02-23T21:57:07;43.97;;;15.47;;
4174;SDS011;2101;48.290;14.382;2023-02-23T21:59:38;37.60;;;13.77;;
4174;SDS011;2101;48.290;14.382;2023-02-23T22:02:05;57.03;;;15.57;;
4174;SDS011;2101;48.290;14.382;2023-02-23T22:04:31;55.30;;;16.10;;
4174;SDS011;2101;48.290;14.382;2023-02-23T22:07:01;45.73;;;14.90;;
4174;SDS011;2101;48.290;14.382;2023-02-23T22:09:34;42.37;;;15.47;;
4174;SDS011;2101;48.290;14.382;2023-02-23T22:12:05;43.87;;;14.30;;
4174;SDS011;2101;48.290;14.382;2023-02-23T22:14:33;60.80;;;18.07;;
4174;SDS011;2101;48.290;14.382;2023-02-23T22:17:08;44.60;;;15.47;;
4174;SDS011;2101;48.290;14.382;2023-02-23T22:19:35;46.37;;;15.80;;
4174;SDS011;2101;48.290;14.382;2023-02-23T22:22:06;50.80;;;16.87;;
4174;SDS011;2101;48.290;14.382;2023-02-23T22:24:33;46.23;;;15.70;;
4174;SDS011;2101;48.290;14.382;2023-02-23T22:27:03;46.60;;;16.07;;
4174;SDS011;2101;48.290;14.382;2023-02-23T22:29:31;53.70;;;17.83;;
4174;SDS011;2101;48.290;14.382;2023-02-23T22:35:23;57.13;;;19.43;;
4174;SDS011;2101;48.290;14.382;2023-02-23T22:38:56;48.03;;;16.47;;
4174;SDS011;2101;48.290;14.382;2023-02-23T23:19:21;60.47;;;20.03;;
4174;SDS011;2101;48.290;14.382;2023-02-23T23:40:56;47.17;;;17.03;;
